Time;durP1;ratioP1;P1;durP2;ratioP2;P2;SDS_P1;SDS_P2;PMS_P1;PMS_P2;Temp;Humidity;BMP_temperature;BMP_pressure;BME280_temperature;BME280_humidity;BME280_pressure;Samples;Min_cycle;Max_cycle;Signal;HPM_P1;HPM_P2
2023/06/08 00:02:00;;;;;;;;;5.00;5.00;;;;;21.35;52.06;100832.16;146616;611;46021;-63
2023/06/08 00:05:03;;;;;;;;;5.00;5.00;;;;;21.31;52.14;100832.06;146616;563;46016;-63
2023/06/08 00:08:18;;;;;;;;;5.00;4.33;;;;;18.81;52.06;100419.53;146617;592;47010;-63
2023/06/08 00:11:15;;;;;;;;;4.33;4.33;;;;;21.27;52.23;100825.88;146618;564;46012;-63
2023/06/08 00:14:16;;;;;;;;;5.00;5.00;;;;;21.23;52.69;100824.97;146623;593;46010;-63
2023/06/08 00:17:10;;;;;;;;;5.33;5.33;;;;;21.22;53.31;100823.22;146620;630;46016;-62
2023/06/08 00:20:46;;;;;;;;;5.75;5.75;;;;;21.21;53.03;100831.09;146621;612;47010;-64
2023/06/08 00:23:57;;;;;;;;;6.33;4.33;;;;;21.13;53.07;100823.13;146618;610;46915;-64
2023/06/08 00:27:22;;;;;;;;;5.00;5.00;;;;;21.03;53.20;100821.28;146619;608;46020;-63
2023/06/08 00:30:35;;;;;;;;;4.00;3.00;;;;;18.57;52.46;100390.31;146616;657;46913;-64
2023/06/08 00:34:00;;;;;;;;;5.00;5.00;;;;;18.65;52.48;100396.53;146621;577;46010;-64
2023/06/08 00:36:56;;;;;;;;;5.33;4.33;;;;;21.23;51.92;100830.25;146612;649;46020;-63
2023/06/08 00:40:06;;;;;;;;;6.33;4.33;;;;;18.83;51.96;100407.31;146622;639;46010;-65
2023/06/08 00:43:22;;;;;;;;;5.33;4.00;;;;;21.33;51.86;100833.84;146618;672;46016;-64
2023/06/08 00:46:30;;;;;;;;;6.75;5.75;;;;;18.92;51.64;100407.44;146618;697;46021;-65
2023/06/08 00:49:43;;;;;;;;;7.00;5.67;;;;;21.39;51.92;100830.44;146618;565;46912;-64
2023/06/08 00:53:19;;;;;;;;;7.25;6.25;;;;;18.93;51.32;100397.81;146617;580;46020;-65
2023/06/08 00:56:40;;;;;;;;;4.00;4.00;;;;;18.85;51.19;100405.59;146619;590;47012;-66
2023/06/08 00:59:52;;;;;;;;;5.00;5.00;;;;;21.31;51.39;100819.78;146620;579;47011;-66
2023/06/08 01:03:13;;;;;;;;;5.00;5.00;;;;;19.74;51.38;100540.72;146618;586;47012;-64
2023/06/08 01:06:20;;;;;;;;;5.67;5.33;;;;;21.35;51.80;100803.16;146619;577;46020;-63
2023/06/08 01:10:08;;;;;;;;;4.00;4.00;;;;;18.89;51.65;100378.50;146617;570;46915;-64
2023/06/08 01:13:32;;;;;;;;;7.00;6.00;;;;;21.35;50.84;100810.16;146620;578;46021;-64
2023/06/08 01:16:39;;;;;;;;;6.00;6.00;;;;;21.27;50.88;100804.78;146616;622;46017;-64
2023/06/08 01:20:09;;;;;;;;;5.33;4.67;;;;;21.22;51.30;100804.75;146622;657;46020;-64
2023/06/08 01:23:35;;;;;;;;;5.67;5.00;;;;;21.23;51.83;100806.50;146615;647;47012;-63
2023/06/08 01:26:38;;;;;;;;;5.67;4.67;;;;;21.23;52.20;100808.28;146620;565;47010;-64
2023/06/08 01:29:46;;;;;;;;;7.00;5.00;;;;;21.17;51.83;100806.47;146617;612;47016;-65
2023/06/08 01:32:38;;;;;;;;;7.00;5.25;;;;;21.13;52.25;100806.44;146619;564;46020;-65
2023/06/08 01:35:48;;;;;;;;;5.75;5.00;;;;;21.10;52.50;100809.91;146619;595;46026;-65
2023/06/08 01:39:34;;;;;;;;;5.00;5.00;;;;;18.37;51.86;100334.91;146616;625;47014;-65
2023/06/08 01:42:57;;;;;;;;;5.33;4.00;;;;;19.57;52.21;100545.78;146620;655;46032;-64
2023/06/08 01:46:05;;;;;;;;;5.00;4.33;;;;;21.13;52.52;100817.84;146621;564;46020;-64
2023/06/08 01:49:17;;;;;;;;;6.33;5.00;;;;;18.43;52.36;100353.38;146618;582;46016;-65
2023/06/08 01:52:35;;;;;;;;;5.00;5.00;;;;;21.14;52.26;100816.09;146624;581;46011;-66
2023/06/08 01:55:46;;;;;;;;;5.67;5.00;;;;;21.10;52.12;100824.84;146618;579;46016;-67
2023/06/08 01:58:53;;;;;;;;;4.25;4.25;;;;;21.05;52.34;100822.16;146621;630;46014;-66
2023/06/08 02:02:09;;;;;;;;;6.75;6.00;;;;;18.83;51.82;100441.47;146615;569;47016;-64
2023/06/08 02:05:21;;;;;;;;;6.00;4.67;;;;;21.02;52.45;100872.22;146621;593;46021;-64
2023/06/08 02:08:22;;;;;;;;;5.75;5.00;;;;;21.04;53.14;100835.34;146619;695;46012;-64
2023/06/08 02:11:29;;;;;;;;;5.00;5.00;;;;;18.80;52.47;100443.19;146618;570;46020;-64
2023/06/08 02:14:36;;;;;;;;;6.00;5.00;;;;;21.14;52.75;100847.75;146618;677;47012;-64
2023/06/08 02:17:41;;;;;;;;;5.75;4.25;;;;;21.15;52.60;100841.59;146621;721;46010;-66
2023/06/08 02:20:55;;;;;;;;;7.25;6.75;;;;;21.13;52.58;100841.59;146615;662;46017;-64
2023/06/08 02:23:55;;;;;;;;;5.25;4.75;;;;;21.06;53.12;100839.78;146621;659;47010;-64
2023/06/08 02:26:57;;;;;;;;;5.75;5.00;;;;;21.01;53.78;100852.00;146618;692;46016;-66
2023/06/08 02:30:02;;;;;;;;;7.25;6.25;;;;;20.95;54.99;100854.56;146616;565;46021;-63
2023/06/08 02:33:04;;;;;;;;;6.00;6.00;;;;;20.90;54.64;100856.25;146615;619;47014;-62
2023/06/08 02:36:13;;;;;;;;;6.33;6.00;;;;;20.85;56.11;100856.22;146622;565;47010;-63
2023/06/08 02:39:11;;;;;;;;;7.25;6.25;;;;;20.74;55.61;100852.56;146617;569;46016;-62
2023/06/08 02:42:08;;;;;;;;;7.00;6.33;;;;;20.59;57.06;100855.94;146619;691;46011;-63
2023/06/08 02:45:35;;;;;;;;;8.33;7.00;;;;;20.55;59.82;100866.41;146618;652;46016;-62
2023/06/08 02:48:27;;;;;;;;;8.75;8.75;;;;;20.41;61.47;100863.56;146618;612;47010;-63
2023/06/08 02:51:47;;;;;;;;;6.00;6.00;;;;;20.30;63.30;100871.31;146616;611;46017;-63
2023/06/08 02:54:50;;;;;;;;;9.00;7.75;;;;;20.17;65.43;100861.47;146621;604;46010;-65
2023/06/08 02:57:52;;;;;;;;;7.50;7.50;;;;;20.10;67.63;100871.03;146617;601;47012;-64
2023/06/08 03:01:20;;;;;;;;;8.50;7.25;;;;;18.77;70.45;100656.78;146621;656;46010;-63
2023/06/08 03:04:43;;;;;;;;;8.25;6.75;;;;;19.99;74.16;100875.22;146617;577;47013;-62
2023/06/08 03:07:53;;;;;;;;;9.50;7.50;;;;;18.22;69.67;100563.88;146621;651;46010;-62
2023/06/08 03:11:09;;;;;;;;;8.00;6.75;;;;;20.07;75.00;100877.13;146617;585;46016;-63
2023/06/08 03:14:08;;;;;;;;;7.00;6.25;;;;;20.16;71.07;100879.00;146620;684;46010;-63
2023/06/08 03:17:30;;;;;;;;;;;;;;;;;;;;;
2023/06/08 03:20:23;;;;;;;;;8.67;7.00;;;;;20.27;74.04;100880.03;146623;591;46023;-63
2023/06/08 03:23:34;;;;;;;;;8.75;8.75;;;;;20.26;74.92;100880.91;146616;690;46914;-63
2023/06/08 03:26:30;;;;;;;;;7.25;7.00;;;;;20.17;75.69;100885.16;146621;622;46011;-63
2023/06/08 03:29:33;;;;;;;;;9.25;9.00;;;;;20.07;75.38;100885.03;146619;563;46012;-63
2023/06/08 03:32:26;;;;;;;;;7.00;7.00;;;;;19.96;75.74;100876.06;146621;569;47010;-63
2023/06/08 03:35:32;;;;;;;;;10.00;9.00;;;;;19.88;74.14;100876.84;146619;612;46012;-62
2023/06/08 03:38:42;;;;;;;;;7.25;7.25;;;;;19.83;74.87;100876.75;146621;570;46023;-63
2023/06/08 03:41:38;;;;;;;;;8.00;7.00;;;;;19.77;73.94;100877.53;146616;653;47012;-63
2023/06/08 03:44:38;;;;;;;;;9.50;8.00;;;;;19.75;74.07;100881.00;146619;565;47010;-63
2023/06/08 03:47:54;;;;;;;;;7.67;7.67;;;;;17.11;69.54;100428.94;146619;701;46016;-63
2023/06/08 03:51:02;;;;;;;;;8.00;8.00;;;;;19.71;73.07;100879.19;146624;589;46018;-62
2023/06/08 03:54:08;;;;;;;;;8.67;8.00;;;;;17.06;71.16;100426.22;146619;612;46012;-63
2023/06/08 03:57:10;;;;;;;;;10.67;9.00;;;;;19.67;72.73;100883.50;146624;632;46011;-63
2023/06/08 04:00:13;;;;;;;;;11.50;8.50;;;;;19.65;73.05;100877.31;146616;677;46016;-62
2023/06/08 04:03:31;;;;;;;;;10.00;9.33;;;;;19.68;71.71;100881.75;146623;583;46021;-63
2023/06/08 04:06:38;;;;;;;;;5.67;5.00;;;;;19.71;71.99;100885.31;146618;674;46016;-62
2023/06/08 04:09:45;;;;;;;;;8.33;8.33;;;;;19.72;71.56;100887.13;146620;569;46020;-63
2023/06/08 04:12:47;;;;;;;;;9.00;7.67;;;;;19.74;71.46;100880.09;146620;579;46016;-63
2023/06/08 04:16:10;;;;;;;;;;;;;;;;;;;;;
2023/06/08 04:19:21;;;;;;;;;8.50;8.00;;;;;19.82;72.88;100878.50;146619;713;46013;-63
2023/06/08 04:22:27;;;;;;;;;7.00;7.00;;;;;19.86;71.57;100881.19;146621;572;46020;-63
2023/06/08 04:25:33;;;;;;;;;8.00;8.00;;;;;19.87;73.38;100883.81;146619;592;46012;-63
2023/06/08 04:28:41;;;;;;;;;8.33;5.33;;;;;19.88;70.44;100882.97;146621;597;46020;-63
2023/06/08 04:32:03;;;;;;;;;13.33;10.33;;;;;19.95;73.16;100892.72;146616;624;47014;-63
2023/06/08 04:35:05;;;;;;;;;10.67;8.33;;;;;19.94;71.24;100890.09;146616;571;46010;-63
2023/06/08 04:38:13;;;;;;;;;7.75;7.75;;;;;19.99;72.87;100891.91;146615;585;46016;-63
2023/06/08 04:41:25;;;;;;;;;8.33;6.33;;;;;20.04;72.45;100884.97;146617;597;47014;-63
2023/06/08 04:44:26;;;;;;;;;7.00;7.00;;;;;20.14;73.38;100888.63;146615;581;47014;-65
2023/06/08 04:47:40;;;;;;;;;6.00;6.00;;;;;20.32;69.63;100887.13;146620;571;47026;-64
2023/06/08 04:51:10;;;;;;;;;10.67;9.00;;;;;20.55;70.51;100898.88;146618;616;46016;-64
2023/06/08 04:54:13;;;;;;;;;8.67;8.67;;;;;20.76;72.18;100903.56;146618;624;47010;-64
2023/06/08 04:57:22;;;;;;;;;12.00;8.33;;;;;20.95;71.32;100900.25;146617;639;46016;-66
2023/06/08 05:00:26;;;;;;;;;9.00;9.00;;;;;21.07;69.60;100907.44;146623;600;47010;-64
2023/06/08 05:03:33;;;;;;;;;10.33;9.00;;;;;21.15;71.50;100910.16;146617;575;46021;-65
2023/06/08 05:06:35;;;;;;;;;9.33;7.00;;;;;21.23;71.00;100916.41;146622;565;46010;-65
2023/06/08 05:09:37;;;;;;;;;11.00;8.00;;;;;21.27;70.67;100915.56;146616;590;46016;-66
2023/06/08 05:12:35;;;;;;;;;9.25;8.75;;;;;21.33;69.29;100915.63;146619;633;46021;-66
2023/06/08 05:15:35;;;;;;;;;8.00;7.33;;;;;21.39;69.21;100918.34;146615;592;47012;-65
2023/06/08 05:18:32;;;;;;;;;13.00;11.00;;;;;21.49;68.82;100911.41;146610;689;46021;-65
2023/06/08 05:21:39;;;;;;;;;9.33;9.33;;;;;21.56;67.58;100912.38;146609;651;46036;-65
2023/06/08 05:24:41;;;;;;;;;12.00;9.33;;;;;21.63;68.29;100920.34;146623;574;46010;-66
2023/06/08 05:27:54;;;;;;;;;8.67;8.67;;;;;21.69;68.21;100919.53;146618;599;46917;-64
2023/06/08 05:31:09;;;;;;;;;8.00;8.00;;;;;21.75;68.68;100916.94;146620;605;46020;-66
2023/06/08 05:34:18;;;;;;;;;11.00;9.33;;;;;21.86;68.04;100922.28;146615;581;46013;-65
2023/06/08 05:37:33;;;;;;;;;10.00;9.00;;;;;20.25;65.92;100623.75;146621;593;46010;-66
2023/06/08 05:40:34;;;;;;;;;10.00;9.00;;;;;22.11;67.77;100926.00;146619;632;46012;-65
2023/06/08 05:43:47;;;;;;;;;;;;;;;;;;;;;
2023/06/08 05:46:47;;;;;;;;;9.25;9.25;;;;;22.30;68.40;100922.66;146617;702;46013;-65
2023/06/08 05:49:48;;;;;;;;;11.00;9.00;;;;;22.31;67.12;100924.44;146612;571;45021;-67
2023/06/08 05:52:45;;;;;;;;;12.00;9.75;;;;;22.37;67.76;100929.75;146614;562;46016;-65
2023/06/08 05:55:53;;;;;;;;;24.00;20.50;;;;;22.46;66.70;100930.66;146618;580;47010;-65
2023/06/08 05:58:49;;;;;;;;;10.00;9.75;;;;;22.57;68.59;100927.22;146610;587;46012;-65
2023/06/08 06:01:52;;;;;;;;;10.00;8.00;;;;;22.79;66.10;100924.69;146619;598;46010;-65
2023/06/08 06:04:50;;;;;;;;;11.00;10.00;;;;;23.04;65.76;100921.28;146618;612;46016;-66
2023/06/08 06:07:46;;;;;;;;;10.67;8.00;;;;;23.28;63.76;100928.41;146616;591;46010;-66
2023/06/08 06:10:58;;;;;;;;;7.00;7.00;;;;;23.50;61.18;100929.34;146619;583;46017;-65
2023/06/08 06:13:59;;;;;;;;;8.33;7.33;;;;;23.74;62.67;100923.22;146622;684;47010;-66
2023/06/08 06:17:06;;;;;;;;;8.33;7.33;;;;;24.04;61.90;100925.84;146618;575;46017;-65
2023/06/08 06:20:03;;;;;;;;;9.67;8.33;;;;;24.30;61.28;100931.09;146621;616;46010;-66
2023/06/08 06:23:03;;;;;;;;;10.00;8.67;;;;;24.36;58.44;100924.06;146618;603;46012;-65
2023/06/08 06:26:13;;;;;;;;;11.67;9.67;;;;;24.34;57.13;100931.13;146620;615;46021;-65
2023/06/08 06:29:10;;;;;;;;;11.75;10.50;;;;;24.32;59.71;100935.53;146615;595;47012;-65
2023/06/08 06:32:15;;;;;;;;;10.00;9.25;;;;;24.34;60.05;100924.94;146614;573;46014;-65
2023/06/08 06:35:13;;;;;;;;;12.50;11.25;;;;;24.29;59.02;100926.69;146616;667;46914;-65
2023/06/08 06:38:12;;;;;;;;;11.75;11.75;;;;;24.30;58.97;100926.72;146612;572;46020;-66
2023/06/08 06:41:07;;;;;;;;;13.33;11.33;;;;;24.28;60.26;100922.28;146612;626;46025;-66
2023/06/08 06:43:59;;;;;;;;;11.25;10.50;;;;;24.20;59.64;100917.91;146613;566;46020;-66
2023/06/08 06:46:54;;;;;;;;;15.25;12.50;;;;;24.18;58.58;100927.59;146609;600;46017;-66
2023/06/08 06:49:50;;;;;;;;;17.00;14.75;;;;;24.13;58.69;100920.53;146611;708;46010;-66
2023/06/08 06:52:43;;;;;;;;;17.25;15.75;;;;;24.07;57.30;100924.06;146609;569;46914;-66
2023/06/08 06:55:36;;;;;;;;;16.50;15.00;;;;;23.93;56.09;100924.09;146612;686;46010;-65
2023/06/08 06:58:34;;;;;;;;;15.75;14.50;;;;;23.77;57.45;100921.44;146611;582;46016;-65
2023/06/08 07:01:49;;;;;;;;;13.00;13.00;;;;;21.52;58.20;100562.31;146613;635;47010;-65
2023/06/08 07:04:48;;;;;;;;;16.25;14.25;;;;;23.64;59.45;100921.37;146610;626;46016;-65
2023/06/08 07:07:57;;;;;;;;;13.50;13.50;;;;;23.71;57.38;100922.34;146613;556;46020;-64
2023/06/08 07:11:02;;;;;;;;;;;;;;;;;;;;;
2023/06/08 07:14:09;;;;;;;;;14.50;12.75;;;;;23.82;57.15;100928.50;146613;589;46010;-65
2023/06/08 07:17:14;;;;;;;;;12.75;11.00;;;;;23.85;56.28;100927.63;146610;620;47012;-65
2023/06/08 07:20:16;;;;;;;;;10.00;10.00;;;;;23.87;55.25;100913.50;146613;661;46020;-65
2023/06/08 07:23:37;;;;;;;;;9.00;9.00;;;;;23.96;55.55;100916.16;146608;582;47013;-66
2023/06/08 07:26:45;;;;;;;;;9.50;7.50;;;;;24.10;54.75;100912.59;146623;599;46020;-65
2023/06/08 07:29:49;;;;;;;;;12.25;11.50;;;;;24.15;55.34;100909.06;146615;691;46914;-66
2023/06/08 07:32:44;;;;;;;;;11.00;10.00;;;;;24.20;55.45;100912.59;146612;688;46021;-65
2023/06/08 07:35:58;;;;;;;;;11.00;11.00;;;;;24.27;55.05;100918.75;146613;635;46034;-64
2023/06/08 07:39:03;;;;;;;;;;;;;;;;;;;;;
2023/06/08 07:42:24;;;;;;;;;9.67;9.67;;;;;24.38;55.35;100919.59;146617;591;46910;-66
2023/06/08 07:45:30;;;;;;;;;11.00;10.00;;;;;24.45;55.01;100922.28;146622;585;47010;-65
2023/06/08 07:48:35;;;;;;;;;11.33;9.67;;;;;24.51;54.56;100919.59;146611;637;46034;-64
2023/06/08 07:51:54;;;;;;;;;12.00;11.00;;;;;22.37;53.83;100540.53;146616;596;46020;-63
2023/06/08 07:54:46;;;;;;;;;10.33;10.33;;;;;24.61;55.18;100908.06;146610;595;46913;-64
2023/06/08 07:57:42;;;;;;;;;16.25;13.25;;;;;24.64;54.34;100908.97;146615;631;46010;-64
2023/06/08 08:00:40;;;;;;;;;13.00;9.67;;;;;24.65;54.43;100905.44;146612;596;46036;-64
2023/06/08 08:03:43;;;;;;;;;9.67;9.67;;;;;24.74;54.48;100904.53;146620;588;46020;-65
2023/06/08 08:07:00;;;;;;;;;11.00;10.50;;;;;22.59;53.86;100504.41;146617;571;46012;-64
2023/06/08 08:10:02;;;;;;;;;14.00;12.00;;;;;25.06;54.13;100900.81;146612;628;46010;-64
2023/06/08 08:13:01;;;;;;;;;15.00;13.50;;;;;25.14;54.96;100903.44;146610;565;46030;-65
2023/06/08 08:15:54;;;;;;;;;14.00;13.00;;;;;25.19;55.08;100907.84;146612;674;46021;-65
2023/06/08 08:18:51;;;;;;;;;12.75;12.25;;;;;25.19;54.80;100901.66;146610;688;46016;-65
2023/06/08 08:22:09;;;;;;;;;14.25;13.25;;;;;25.17;54.36;100901.69;146608;713;46021;-65
2023/06/08 08:25:16;;;;;;;;;16.00;14.25;;;;;22.76;54.14;100477.94;146608;654;47017;-64
2023/06/08 08:28:11;;;;;;;;;13.00;13.00;;;;;25.32;54.44;100892.72;146615;688;46010;-65
2023/06/08 08:31:12;;;;;;;;;11.00;11.00;;;;;25.49;53.94;100887.31;146610;706;46013;-65
2023/06/08 08:34:12;;;;;;;;;12.25;11.00;;;;;25.57;52.61;100890.78;146613;723;46020;-65
2023/06/08 08:37:18;;;;;;;;;11.00;10.75;;;;;25.59;53.18;100894.31;146612;644;46012;-65
2023/06/08 08:40:25;;;;;;;;;8.75;8.75;;;;;25.67;54.65;100883.59;146611;579;46014;-65
2023/06/08 08:44:00;;;;;;;;;9.75;9.75;;;;;25.82;53.04;100888.81;146613;569;47013;-65
2023/06/08 08:47:02;;;;;;;;;9.00;9.00;;;;;25.93;53.29;100880.78;146619;588;46010;-65
2023/06/08 08:50:17;;;;;;;;;8.00;8.00;;;;;26.07;52.48;100883.28;146615;569;46016;-66
2023/06/08 08:53:27;;;;;;;;;;;;;;;;;;;;;
2023/06/08 08:56:45;;;;;;;;;8.33;7.00;;;;;26.45;50.97;100883.78;146610;591;47012;-65
2023/06/08 08:59:42;;;;;;;;;8.67;8.33;;;;;26.65;51.08;100878.22;146613;564;47020;-65
2023/06/08 09:02:36;;;;;;;;;9.00;8.33;;;;;26.78;51.04;100872.75;146616;601;46017;-65
2023/06/08 09:05:50;;;;;;;;;8.00;8.00;;;;;26.90;50.19;100878.78;146621;564;46020;-65
2023/06/08 09:08:54;;;;;;;;;7.67;7.00;;;;;27.02;48.96;100876.88;146617;581;46013;-65
2023/06/08 09:12:18;;;;;;;;;8.00;7.00;;;;;25.26;50.48;100531.84;146624;596;47010;-65
2023/06/08 09:15:27;;;;;;;;;8.33;7.00;;;;;27.36;48.86;100869.28;146616;653;46031;-65
2023/06/08 09:19:00;;;;;;;;;8.75;7.75;;;;;25.26;49.23;100486.72;146620;565;46020;-65
2023/06/08 09:22:04;;;;;;;;;7.67;7.00;;;;;27.57;48.28;100860.06;146616;564;47017;-64
2023/06/08 09:25:02;;;;;;;;;9.00;8.00;;;;;27.79;49.06;100852.62;146620;583;46020;-65
2023/06/08 09:27:55;;;;;;;;;9.00;8.67;;;;;28.02;48.86;100852.19;146619;565;46016;-65
2023/06/08 09:31:02;;;;;;;;;7.33;7.00;;;;;28.13;48.47;100855.56;146622;571;46011;-66
2023/06/08 09:34:25;;;;;;;;;9.00;8.00;;;;;28.10;46.81;100852.94;146615;742;47016;-65
2023/06/08 09:37:18;;;;;;;;;9.00;7.00;;;;;27.99;46.35;100853.13;146621;613;46021;-67
2023/06/08 09:40:32;;;;;;;;;8.67;8.67;;;;;27.84;48.39;100846.28;146615;577;46016;-66
2023/06/08 09:43:55;;;;;;;;;9.00;8.67;;;;;27.69;49.66;100843.00;146621;598;46020;-66
2023/06/08 09:47:14;;;;;;;;;9.25;9.00;;;;;27.55;50.08;100837.91;146614;704;47012;-65
2023/06/08 09:50:19;;;;;;;;;8.00;8.00;;;;;27.58;49.74;100835.19;146623;580;46020;-65
2023/06/08 09:53:31;;;;;;;;;9.33;9.33;;;;;27.57;50.38;100834.31;146618;621;46016;-65
2023/06/08 09:56:34;;;;;;;;;9.33;8.00;;;;;27.55;49.70;100830.81;146611;566;47010;-65
2023/06/08 09:59:43;;;;;;;;;11.33;9.67;;;;;27.62;50.90;100821.78;146620;593;46013;-65
2023/06/08 10:02:54;;;;;;;;;11.00;10.67;;;;;27.90;48.31;100812.47;146620;579;46020;-67
2023/06/08 10:06:13;;;;;;;;;9.33;6.67;;;;;28.13;48.78;100818.25;146614;635;47012;-65
2023/06/08 10:09:13;;;;;;;;;10.33;9.00;;;;;28.17;48.68;100803.94;146621;565;46010;-65
2023/06/08 10:12:09;;;;;;;;;9.33;9.33;;;;;28.09;48.98;100812.06;146617;606;46012;-65
2023/06/08 10:15:26;;;;;;;;;10.00;8.67;;;;;25.75;49.25;100432.94;146620;679;46020;-66
2023/06/08 10:18:29;;;;;;;;;11.33;10.67;;;;;27.58;50.05;100803.22;146620;609;46012;-66
2023/06/08 10:21:35;;;;;;;;;8.33;8.33;;;;;27.30;50.34;100801.03;146615;578;46021;-66
2023/06/08 10:25:00;;;;;;;;;9.67;9.67;;;;;24.81;51.09;100436.84;146616;599;46016;-65
2023/06/08 10:28:24;;;;;;;;;8.67;8.67;;;;;26.72;52.30;100799.22;146618;571;46010;-66
2023/06/08 10:31:43;;;;;;;;;11.67;10.00;;;;;26.57;52.31;100800.31;146617;676;46035;-64
2023/06/08 10:34:44;;;;;;;;;8.00;8.00;;;;;26.35;50.00;100805.00;146614;563;46020;-65
2023/06/08 10:37:55;;;;;;;;;8.33;7.33;;;;;26.06;48.70;100799.16;146616;569;47915;-64
2023/06/08 10:41:12;;;;;;;;;6.33;6.33;;;;;23.67;51.64;100433.44;146620;589;46020;-65
2023/06/08 10:44:33;;;;;;;;;9.33;7.33;;;;;25.83;51.47;100783.47;146618;625;47012;-65
2023/06/08 10:47:31;;;;;;;;;9.00;9.00;;;;;25.79;52.46;100780.81;146622;582;46010;-65
2023/06/08 10:50:32;;;;;;;;;8.33;7.00;;;;;25.82;50.36;100781.69;146619;651;46024;-65
2023/06/08 10:53:45;;;;;;;;;6.67;6.67;;;;;25.84;50.11;100775.47;146622;644;47010;-66
2023/06/08 10:57:18;;;;;;;;;8.33;7.67;;;;;25.91;50.61;100781.59;146617;596;47014;-65
2023/06/08 11:00:46;;;;;;;;;8.00;7.00;;;;;25.98;49.71;100785.94;146617;640;46021;-64
2023/06/08 11:03:54;;;;;;;;;9.00;8.00;;;;;26.21;48.69;100783.03;146617;589;46016;-65
2023/06/08 11:07:05;;;;;;;;;8.75;8.75;;;;;26.37;50.31;100784.59;146620;566;46021;-65
2023/06/08 11:10:13;;;;;;;;;8.33;8.00;;;;;24.42;49.09;100430.22;146618;577;47016;-66
2023/06/08 11:13:21;;;;;;;;;7.00;5.67;;;;;26.43;49.35;100783.66;146619;650;46020;-64
2023/06/08 11:16:29;;;;;;;;;7.00;7.00;;;;;26.47;49.81;100780.91;146617;600;46017;-64
2023/06/08 11:19:36;;;;;;;;;5.00;5.00;;;;;26.59;47.84;100776.37;146624;569;46010;-65
2023/06/08 11:22:36;;;;;;;;;7.67;6.67;;;;;26.69;48.24;100789.50;146612;573;46016;-65
2023/06/08 11:25:32;;;;;;;;;7.67;7.00;;;;;26.86;46.25;100772.44;146620;642;46020;-65
2023/06/08 11:28:28;;;;;;;;;10.00;8.33;;;;;26.99;46.75;100768.69;146619;590;46914;-65
2023/06/08 11:31:38;;;;;;;;;9.00;9.00;;;;;27.06;45.84;100778.31;146609;705;46010;-66
2023/06/08 11:34:41;;;;;;;;;8.00;6.67;;;;;27.14;47.33;100775.59;146618;596;46012;-66
2023/06/08 11:37:41;;;;;;;;;9.33;6.33;;;;;27.25;46.88;100783.38;146618;580;47021;-65
2023/06/08 11:40:44;;;;;;;;;8.00;7.00;;;;;27.32;45.99;100774.38;146618;635;46012;-64
2023/06/08 11:43:51;;;;;;;;;6.33;6.33;;;;;27.42;47.11;100767.12;146621;638;46020;-65
2023/06/08 11:47:12;;;;;;;;;2.00;1.00;;;;;27.67;46.60;100763.13;146616;578;46014;-65
2023/06/08 11:50:16;;;;;;;;;5.67;5.00;;;;;27.93;44.20;100764.44;146621;581;46015;-64
2023/06/08 11:53:16;;;;;;;;;7.67;7.67;;;;;27.97;43.80;100766.97;146613;675;46016;-66
2023/06/08 11:56:25;;;;;;;;;11.50;10.50;;;;;25.79;45.62;100385.09;146621;576;46020;-65
2023/06/08 11:59:29;;;;;;;;;6.00;6.00;;;;;27.96;43.90;100761.69;146611;587;47016;-64
2023/06/08 12:02:28;;;;;;;;;7.67;6.33;;;;;27.91;45.74;100764.44;146611;577;47020;-64
2023/06/08 12:05:42;;;;;;;;;6.33;6.00;;;;;27.98;44.99;100768.75;146616;585;46032;-65
2023/06/08 12:08:45;;;;;;;;;8.00;7.00;;;;;28.02;45.29;100764.25;146622;565;46010;-65
2023/06/08 12:12:30;;;;;;;;;7.67;5.00;;;;;26.05;44.80;100413.00;146618;640;46026;-65
2023/06/08 12:15:46;;;;;;;;;7.00;7.00;;;;;27.92;45.23;100758.22;146621;622;46020;-66
2023/06/08 12:19:02;;;;;;;;;7.67;7.67;;;;;27.90;44.42;100760.03;146618;636;46012;-64
2023/06/08 12:21:56;;;;;;;;;7.00;7.00;;;;;27.96;43.31;100743.91;146621;597;46032;-65
2023/06/08 12:25:17;;;;;;;;;7.00;7.00;;;;;25.84;45.13;100381.50;146618;575;47012;-65
2023/06/08 12:28:30;;;;;;;;;5.67;5.67;;;;;27.92;43.66;100746.69;146621;570;46021;-64
2023/06/08 12:31:29;;;;;;;;;7.67;6.67;;;;;27.66;44.25;100749.81;146619;589;46034;-64
2023/06/08 12:34:28;;;;;;;;;7.33;6.00;;;;;27.25;43.50;100741.66;146618;603;46014;-64
2023/06/08 12:37:53;;;;;;;;;;;;;;;;;;;;;
2023/06/08 12:41:18;;;;;;;;;7.67;7.67;;;;;24.37;45.41;100389.63;146620;636;46020;-64
2023/06/08 12:44:27;;;;;;;;;7.00;6.67;;;;;23.91;46.45;100337.97;146618;599;47012;-64
2023/06/08 12:47:36;;;;;;;;;;;;;;;;;;;;;
2023/06/08 12:50:45;;;;;;;;;9.67;7.67;;;;;24.30;48.05;100383.50;146618;631;46016;-63
2023/06/08 12:53:40;;;;;;;;;8.33;8.33;;;;;26.47;47.38;100726.84;146623;579;46020;-63
2023/06/08 12:56:37;;;;;;;;;7.00;7.00;;;;;26.54;47.94;100719.69;146618;590;46016;-65
2023/06/08 12:59:44;;;;;;;;;7.67;6.33;;;;;26.62;47.96;100715.16;146620;653;46032;-64
2023/06/08 13:02:42;;;;;;;;;6.00;5.33;;;;;26.74;46.00;100714.97;146617;603;47012;-64
2023/06/08 13:05:39;;;;;;;;;7.67;7.00;;;;;26.68;45.96;100710.63;146617;570;47015;-64
2023/06/08 13:08:52;;;;;;;;;7.33;7.00;;;;;26.69;47.28;100711.50;146617;587;47014;-65
2023/06/08 13:11:58;;;;;;;;;8.67;7.67;;;;;26.76;46.71;100706.94;146621;598;47020;-66
2023/06/08 13:14:53;;;;;;;;;7.00;6.00;;;;;26.84;45.81;100705.94;146621;587;46012;-64
2023/06/08 13:17:56;;;;;;;;;9.00;8.00;;;;;26.94;46.50;100702.22;146622;634;47010;-65
2023/06/08 13:21:00;;;;;;;;;7.33;6.67;;;;;27.02;46.19;100714.53;146615;615;46017;-64
2023/06/08 13:24:16;;;;;;;;;7.00;5.67;;;;;27.10;46.98;100702.88;146621;674;47010;-63
2023/06/08 13:27:29;;;;;;;;;6.33;6.33;;;;;27.13;47.39;100694.81;146617;578;46915;-64
2023/06/08 13:30:25;;;;;;;;;11.00;7.00;;;;;27.17;45.90;100696.56;146624;569;46010;-65
2023/06/08 13:33:20;;;;;;;;;6.00;5.33;;;;;27.07;46.72;100694.03;146618;570;47012;-65
2023/06/08 13:36:39;;;;;;;;;6.33;6.33;;;;;26.95;46.35;100698.66;146618;589;46021;-65
2023/06/08 13:39:38;;;;;;;;;5.67;5.67;;;;;26.88;48.17;100691.66;146619;644;46910;-65
2023/06/08 13:42:44;;;;;;;;;6.75;5.00;;;;;26.81;46.93;100691.81;146620;574;46021;-64
2023/06/08 13:45:59;;;;;;;;;5.67;5.67;;;;;26.68;47.72;100683.16;146618;600;48012;-64
2023/06/08 13:48:54;;;;;;;;;7.33;7.33;;;;;26.70;48.38;100682.22;146618;659;47020;-65
2023/06/08 13:51:50;;;;;;;;;6.33;6.33;;;;;26.77;47.59;100682.13;146615;611;47012;-66
2023/06/08 13:54:44;;;;;;;;;8.00;8.00;;;;;26.80;48.19;100682.09;146621;608;46014;-64
2023/06/08 13:57:51;;;;;;;;;8.00;6.00;;;;;26.79;48.82;100682.97;146619;643;46913;-65
2023/06/08 14:00:55;;;;;;;;;6.00;5.00;;;;;26.61;50.61;100679.72;146619;634;47010;-64
2023/06/08 14:04:03;;;;;;;;;8.33;7.00;;;;;26.49;49.85;100675.44;146613;576;47016;-64
2023/06/08 14:07:01;;;;;;;;;9.33;7.33;;;;;26.51;49.22;100674.53;146609;591;46020;-66
2023/06/08 14:10:05;;;;;;;;;9.33;6.33;;;;;26.51;49.08;100674.53;146615;638;47016;-63
2023/06/08 14:13:09;;;;;;;;;7.67;7.67;;;;;26.60;50.99;100671.75;146620;566;47034;-64
2023/06/08 14:16:12;;;;;;;;;7.67;6.33;;;;;26.64;50.18;100674.34;146617;563;46012;-65
2023/06/08 14:19:17;;;;;;;;;7.00;7.00;;;;;26.58;49.81;100663.81;146619;594;47011;-63
2023/06/08 14:22:20;;;;;;;;;7.33;6.00;;;;;26.52;51.19;100663.03;146616;595;47012;-65
2023/06/08 14:25:36;;;;;;;;;6.00;6.00;;;;;26.48;51.93;100651.53;146620;668;46020;-64
2023/06/08 14:28:33;;;;;;;;;7.67;6.67;;;;;26.47;53.00;100655.94;146619;592;46017;-64
2023/06/08 14:31:28;;;;;;;;;7.33;7.33;;;;;26.47;52.55;100644.44;146619;596;46020;-64
2023/06/08 14:34:22;;;;;;;;;6.00;5.67;;;;;26.47;52.73;100647.97;146616;635;46025;-64
2023/06/08 14:37:22;;;;;;;;;6.00;5.00;;;;;26.44;51.89;100639.16;146616;596;46010;-65
2023/06/08 14:40:28;;;;;;;;;7.33;6.00;;;;;26.41;51.98;100647.19;146619;581;46014;-64